Time;durP1;ratioP1;P1;durP2;ratioP2;P2;SDS_P1;SDS_P2;PMS_P1;PMS_P2;Temp;Humidity;BMP_temperature;BMP_pressure;BME280_temperature;BME280_humidity;BME280_pressure;Samples;Min_cycle;Max_cycle;Signal;HPM_P1;HPM_P2
2021/12/07 00:01:14;;;;;;;6.23;5.93;;;;;;;1.92;93.72;100029.84;5114674;28;20694;-73
2021/12/07 00:03:42;;;;;;;6.53;6.23;;;;;;;1.93;93.77;100026.41;5114919;28;20188;-73
2021/12/07 00:06:08;;;;;;;7.87;7.40;;;;;;;2.04;93.42;100022.78;5114419;28;20169;-73
2021/12/07 00:08:36;;;;;;;7.77;7.17;;;;;;;1.99;93.72;100027.16;5114294;28;20220;-73
2021/12/07 00:11:03;;;;;;;5.67;5.57;;;;;;;2.07;93.39;100025.31;5114835;28;20192;-74
2021/12/07 00:13:33;;;;;;;6.53;6.13;;;;;;;2.09;93.25;100023.56;5114565;28;20230;-74
2021/12/07 00:16:00;;;;;;;5.23;5.13;;;;;;;2.02;93.10;100030.56;5114505;28;20169;-74
2021/12/07 00:18:27;;;;;;;5.07;4.97;;;;;;;2.02;93.22;100030.56;5114056;28;20213;-73
2021/12/07 00:20:54;;;;;;;4.53;4.40;;;;;;;2.14;93.07;100034.63;5114065;28;20780;-73
2021/12/07 00:23:20;;;;;;;5.03;4.93;;;;;;;2.13;92.89;100038.09;5114139;28;20189;-73
2021/12/07 00:25:47;;;;;;;5.10;5.00;;;;;;;2.14;92.78;100042.38;5114065;28;20196;-73
2021/12/07 00:28:14;;;;;;;4.83;4.63;;;;;;;2.19;92.28;100035.41;5113959;28;20213;-73
2021/12/07 00:30:40;;;;;;;4.07;3.97;;;;;;;2.18;92.46;100036.31;5114009;28;20189;-73
2021/12/07 00:33:13;;;;;;;3.67;3.63;;;;;;;2.20;92.34;100027.63;5113873;28;20213;-73
2021/12/07 00:35:40;;;;;;;4.20;4.20;;;;;;;2.17;92.69;100032.88;5095792;28;20188;-70
2021/12/07 00:38:14;;;;;;;4.00;3.97;;;;;;;2.27;92.74;100027.53;5095547;28;20217;-70
2021/12/07 00:40:42;;;;;;;3.97;3.87;;;;;;;2.21;92.74;100038.81;5095597;28;20216;-72
2021/12/07 00:43:10;;;;;;;3.60;3.60;;;;;;;2.25;92.62;100037.03;5113390;28;20205;-70
2021/12/07 00:45:38;;;;;;;3.60;3.60;;;;;;;2.33;92.57;100041.19;5095626;28;20193;-70
2021/12/07 00:48:06;;;;;;;3.40;3.40;;;;;;;2.31;92.74;100045.53;5113764;28;20581;-70
2021/12/07 00:50:34;;;;;;;4.03;3.93;;;;;;;2.28;92.16;100043.00;5113740;28;20182;-70
2021/12/07 00:53:05;;;;;;;3.73;3.63;;;;;;;2.26;92.11;100049.06;5095566;28;20601;-70
2021/12/07 00:55:37;;;;;;;4.90;3.37;;;;;;;2.29;92.35;100049.88;5114303;28;20177;-70
2021/12/07 00:58:13;;;;;;;3.73;3.70;;;;;;;2.29;92.57;100049.88;5113672;28;20621;-70
2021/12/07 01:00:41;;;;;;;4.47;4.37;;;;;;;2.31;92.68;100055.88;5095419;28;20273;-70
2021/12/07 01:03:08;;;;;;;4.73;4.63;;;;;;;2.28;92.73;100061.06;5095394;28;20589;-70
2021/12/07 01:05:36;;;;;;;3.80;3.80;;;;;;;2.24;92.95;100058.59;5095424;28;20189;-70
2021/12/07 01:24:41;;;;;;;6.77;6.27;;;;;;;2.01;93.53;100082.22;5113495;28;20184;-73
2021/12/07 01:27:10;;;;;;;7.17;6.87;;;;;;;1.98;93.37;100087.44;5113370;28;20275;-73
2021/12/07 01:29:38;;;;;;;7.37;6.97;;;;;;;1.82;93.68;100098.00;5113948;28;20200;-73
2021/12/07 01:32:22;;;;;;;8.90;8.33;;;;;;;1.85;93.35;100092.78;5095417;28;20190;-73
2021/12/07 01:45:35;;;;;;;8.87;8.10;;;;;;;1.47;93.79;100116.59;5113282;28;20181;-73
2021/12/07 01:48:09;;;;;;;9.57;8.87;;;;;;;1.39;94.24;100118.41;5095058;28;20230;-73
2021/12/07 01:50:50;;;;;;;10.17;9.17;;;;;;;1.35;94.50;100124.47;5113258;28;20169;-73
2021/12/07 02:01:34;;;;;;;9.53;8.83;;;;;;;1.26;95.24;100146.09;5098524;28;20209;-73
2021/12/07 02:04:01;;;;;;;9.93;9.13;;;;;;;1.24;95.14;100145.25;5098489;28;20217;-73
2021/12/07 02:06:28;;;;;;;10.63;9.77;;;;;;;1.22;95.06;100149.59;5098409;28;20647;-73
2021/12/07 02:08:55;;;;;;;12.87;11.03;;;;;;;1.19;94.83;100151.34;5098254;28;20212;-73
2021/12/07 02:11:22;;;;;;;11.83;10.07;;;;;;;1.12;95.00;100153.13;5098466;28;20199;-73
2021/12/07 02:16:21;;;;;;;11.13;10.07;;;;;;;1.00;95.08;100159.31;5098537;28;20196;-73
2021/12/07 02:18:48;;;;;;;10.17;9.33;;;;;;;0.99;95.48;100169.59;5098090;28;20213;-73
2021/12/07 02:21:15;;;;;;;10.87;9.83;;;;;;;1.03;95.75;100164.41;5097925;28;20216;-73
2021/12/07 02:23:43;;;;;;;10.20;9.20;;;;;;;1.06;95.67;100173.81;5098421;28;20196;-73
2021/12/07 02:26:10;;;;;;;10.57;9.50;;;;;;;1.00;95.83;100177.34;5098100;28;20208;-70
2021/12/07 02:28:39;;;;;;;11.17;10.03;;;;;;;1.05;95.79;100172.13;5097984;28;20593;-70
2021/12/07 02:31:07;;;;;;;10.67;9.63;;;;;;;1.02;95.82;100182.47;5098038;28;20186;-70
2021/12/07 02:33:35;;;;;;;9.90;9.03;;;;;;;1.05;96.01;100185.88;5097979;28;20219;-72
2021/12/07 02:36:03;;;;;;;9.90;9.23;;;;;;;1.03;95.89;100192.78;5116158;28;20234;-72
2021/12/07 02:38:30;;;;;;;10.57;9.30;;;;;;;1.07;95.96;100191.00;5098497;28;20262;-72
2021/12/07 02:40:58;;;;;;;9.93;9.07;;;;;;;1.11;95.86;100197.84;5097733;28;20574;-72
2021/12/07 02:43:25;;;;;;;9.47;8.73;;;;;;;1.16;96.16;100206.38;5116044;28;20189;-72
2021/12/07 02:45:52;;;;;;;9.93;9.23;;;;;;;1.09;96.16;100212.47;5116325;28;20176;-72
2021/12/07 02:48:23;;;;;;;9.90;8.97;;;;;;;1.31;95.66;100224.25;5097580;28;20732;-72
2021/12/07 02:50:52;;;;;;;11.13;9.57;;;;;;;1.19;96.04;100219.22;5097786;28;20280;-72
2021/12/07 02:53:26;;;;;;;9.47;8.83;;;;;;;1.20;96.30;100227.81;5097783;28;20196;-73
2021/12/07 02:55:55;;;;;;;9.83;9.03;;;;;;;1.24;96.08;100234.66;5097760;28;20185;-70
2021/12/07 02:58:23;;;;;;;13.03;9.70;;;;;;;1.24;96.34;100232.06;5097967;28;20205;-70
2021/12/07 03:01:02;;;;;;;12.47;9.83;;;;;;;1.26;96.34;100235.47;5115926;28;20195;-70
2021/12/07 03:03:35;;;;;;;11.30;10.33;;;;;;;1.18;96.43;100238.16;5097611;28;20217;-70
2021/12/07 03:06:18;;;;;;;11.50;10.50;;;;;;;1.27;96.39;100238.03;5097510;28;20188;-70
2021/12/07 03:28:10;;;;;;;24.00;14.40;;;;;;;1.53;96.68;100270.44;5096863;28;20586;-73
2021/12/07 03:30:37;;;;;;;25.70;15.57;;;;;;;1.43;96.96;100266.22;5096809;28;20181;-73
2021/12/07 03:33:05;;;;;;;21.30;15.30;;;;;;;1.47;97.07;100280.81;5097343;28;20650;-73
2021/12/07 03:35:33;;;;;;;22.83;16.17;;;;;;;1.54;96.76;100288.47;5096664;28;20212;-73
2021/12/07 03:38:00;;;;;;;29.17;15.53;;;;;;;1.56;96.82;100285.84;5096573;28;20216;-73
2021/12/07 03:40:27;;;;;;;31.60;15.80;;;;;;;1.58;96.87;100294.47;5096573;28;20316;-73
2021/12/07 03:42:54;;;;;;;24.60;15.40;;;;;;;1.56;97.09;100281.56;5096543;28;20193;-73
2021/12/07 03:45:24;;;;;;;17.70;14.77;;;;;;;1.67;97.12;100293.50;5096816;28;20285;-73
2021/12/07 03:47:52;;;;;;;21.97;15.37;;;;;;;1.68;97.05;100296.03;5096506;28;20209;-73
2021/12/07 03:50:21;;;;;;;22.60;15.30;;;;;;;1.61;97.10;100297.00;5096674;28;20684;-73
2021/12/07 03:52:50;;;;;;;23.70;16.00;;;;;;;1.68;96.71;100302.94;5096709;28;20673;-73
2021/12/07 03:55:18;;;;;;;21.27;14.93;;;;;;;1.72;96.79;100308.06;5096346;28;20694;-71
2021/12/07 03:57:44;;;;;;;21.90;14.73;;;;;;;1.66;97.22;100313.28;5114512;28;20686;-70
2021/12/07 04:00:16;;;;;;;19.27;14.40;;;;;;;1.73;97.10;100314.06;5096256;28;20193;-70
2021/12/07 04:02:50;;;;;;;22.17;13.33;;;;;;;1.83;96.91;100311.34;5096181;28;20198;-70
2021/12/07 04:05:21;;;;;;;20.57;14.70;;;;;;;1.81;96.78;100322.56;5096175;28;20566;-70
2021/12/07 04:07:50;;;;;;;18.80;14.53;;;;;;;1.89;96.90;100323.31;5114305;28;20197;-70
2021/12/07 04:10:22;;;;;;;19.33;14.23;;;;;;;1.81;96.68;100331.16;5096978;28;20283;-70
2021/12/07 04:12:49;;;;;;;23.33;13.30;;;;;;;1.88;96.81;100332.81;5114338;28;20290;-70
2021/12/07 04:15:17;;;;;;;32.47;15.20;;;;;;;1.91;96.67;100335.31;5096044;28;20186;-70
2021/12/07 04:17:44;;;;;;;18.87;13.77;;;;;;;1.86;96.57;100333.69;5078147;28;20212;-70
2021/12/07 04:20:13;;;;;;;26.27;14.37;;;;;;;1.95;96.58;100331.00;5095963;28;20562;-70
2021/12/07 04:22:40;;;;;;;17.67;12.70;;;;;;;1.86;96.52;100337.13;5095930;28;20208;-70
2021/12/07 04:25:10;;;;;;;18.50;13.40;;;;;;;1.89;96.93;100347.41;5114203;28;20184;-70
2021/12/07 04:27:39;;;;;;;18.87;13.40;;;;;;;1.90;96.67;100349.13;5114811;28;20208;-70
2021/12/07 04:30:12;;;;;;;16.50;12.87;;;;;;;1.90;96.72;100359.44;5113949;28;20188;-70
2021/12/07 04:32:39;;;;;;;17.67;12.93;;;;;;;1.99;96.61;100350.72;5113987;28;20169;-70
2021/12/07 04:35:07;;;;;;;28.33;13.30;;;;;;;2.04;96.51;100353.25;5113936;28;20550;-70
2021/12/07 04:37:34;;;;;;;15.53;12.33;;;;;;;2.15;96.27;100360.00;5113891;28;20702;-71
2021/12/07 04:40:00;;;;;;;14.47;11.43;;;;;;;2.11;96.42;100354.88;5114160;28;20192;-70
2021/12/07 04:42:27;;;;;;;20.13;13.33;;;;;;;2.11;96.64;100370.38;5114296;28;20224;-70
2021/12/07 04:44:58;;;;;;;20.07;14.07;;;;;;;2.15;96.67;100362.59;5113837;28;20189;-70
2021/12/07 04:58:08;;;;;;;28.10;13.47;;;;;;;2.15;96.57;100366.91;5113623;28;20623;-71
2021/12/07 05:00:35;;;;;;;14.80;12.13;;;;;;;2.18;96.32;100359.97;5113662;28;20190;-71
2021/12/07 05:03:06;;;;;;;14.67;12.93;;;;;;;2.18;95.91;100361.69;5113699;28;20181;-71
2021/12/07 05:05:38;;;;;;;17.77;12.40;;;;;;;2.23;96.02;100370.25;5113908;28;20529;-71
2021/12/07 05:08:08;;;;;;;23.87;12.10;;;;;;;2.18;96.32;100377.19;5113592;28;20201;-70
2021/12/07 05:10:59;;;;;;;16.60;12.73;;;;;;;2.21;96.44;100374.53;5113583;28;20178;-70
2021/12/07 05:13:31;;;;;;;29.10;13.30;;;;;;;2.32;96.35;100379.59;5113447;28;20196;-70
2021/12/07 05:16:26;;;;;;;19.43;12.07;;;;;;;2.29;96.33;100384.81;5114073;28;20238;-70
2021/12/07 05:23:52;;;;;;;21.50;12.77;;;;;;;2.37;96.33;100395.91;5112369;28;20213;-70
2021/12/07 05:24:22;;;;;;;26.27;13.27;;;;;;;2.37;96.76;100401.06;5113608;28;20200;-70
2021/12/07 05:37:57;;;;;;;39.30;14.77;;;;;;;2.47;96.62;100419.00;5117219;28;20205;-73
2021/12/07 05:40:26;;;;;;;25.70;13.77;;;;;;;2.49;96.90;100419.81;5117896;28;20173;-73
2021/12/07 05:42:54;;;;;;;28.53;12.57;;;;;;;2.57;96.84;100429.19;5117381;28;20212;-73
2021/12/07 05:45:25;;;;;;;28.90;13.57;;;;;;;2.58;96.70;100434.38;5117051;28;20181;-73
2021/12/07 05:47:52;;;;;;;24.37;12.97;;;;;;;2.53;96.61;100441.31;5117313;28;20213;-73
2021/12/07 05:50:22;;;;;;;18.27;11.60;;;;;;;2.57;96.53;100449.88;5117077;28;20188;-73
2021/12/07 05:52:48;;;;;;;22.53;12.67;;;;;;;2.62;96.75;100458.44;5117599;28;20189;-72
2021/12/07 05:55:15;;;;;;;21.50;12.93;;;;;;;2.65;96.74;100454.09;5116979;28;20185;-71
2021/12/07 05:57:42;;;;;;;33.07;13.40;;;;;;;2.75;96.59;100470.31;5117415;28;20698;-71
2021/12/07 06:00:22;;;;;;;13.47;10.97;;;;;;;2.83;96.36;100470.22;5116874;28;20658;-71
2021/12/07 06:02:50;;;;;;;38.23;12.83;;;;;;;2.83;96.24;100478.81;5117039;28;20557;-73
2021/12/07 06:05:17;;;;;;;26.00;12.20;;;;;;;2.93;96.12;100477.84;5116814;28;20185;-73
2021/12/07 06:07:44;;;;;;;22.10;11.57;;;;;;;2.96;95.95;100484.69;5116612;28;20688;-73
2021/12/07 06:10:10;;;;;;;22.40;10.37;;;;;;;3.00;95.99;100482.03;5116697;28;20189;-74
2021/12/07 06:12:37;;;;;;;24.87;13.13;;;;;;;2.98;95.84;100481.19;5116920;28;20177;-73
2021/12/07 06:15:04;;;;;;;32.67;12.33;;;;;;;3.04;95.79;100488.00;5116527;28;20192;-73
2021/12/07 06:17:30;;;;;;;21.90;11.47;;;;;;;3.01;95.60;100494.09;5116981;28;20198;-73
2021/12/07 06:19:57;;;;;;;16.37;11.73;;;;;;;2.95;95.43;100501.09;5116809;28;20237;-73
2021/12/07 06:22:23;;;;;;;29.63;11.70;;;;;;;2.90;95.57;100508.03;5116173;28;20216;-74
2021/12/07 06:24:51;;;;;;;22.03;11.97;;;;;;;2.92;95.36;100499.38;5116816;28;20177;-74
2021/12/07 06:27:18;;;;;;;21.83;12.00;;;;;;;2.84;95.75;100503.78;5116594;28;20228;-74
2021/12/07 06:29:44;;;;;;;17.93;11.40;;;;;;;2.90;95.36;100505.44;5116373;28;20185;-74
2021/12/07 06:32:11;;;;;;;15.53;11.80;;;;;;;2.91;95.38;100508.00;5116281;28;20178;-74
2021/12/07 06:34:37;;;;;;;26.80;10.67;;;;;;;2.91;95.33;100510.59;5116175;28;20196;-74
2021/12/07 06:37:04;;;;;;;25.53;10.67;;;;;;;2.90;95.22;100513.22;5116078;28;20201;-73
2021/12/07 06:39:31;;;;;;;23.00;9.53;;;;;;;2.95;94.80;100511.44;5115204;28;20189;-71
2021/12/07 06:41:58;;;;;;;27.70;9.63;;;;;;;2.80;95.10;100519.38;5115826;28;20205;-70
2021/12/07 06:44:24;;;;;;;16.73;8.83;;;;;;;2.82;95.56;100510.72;5115981;28;20196;-70
2021/12/07 06:46:52;;;;;;;13.07;7.97;;;;;;;2.88;95.26;100525.31;5116140;28;20187;-71
2021/12/07 06:49:20;;;;;;;14.80;8.97;;;;;;;2.82;95.45;100526.25;5097491;28;20643;-70
2021/12/07 06:51:48;;;;;;;30.23;10.27;;;;;;;2.87;95.42;100521.03;5097804;28;20185;-70
2021/12/07 06:54:15;;;;;;;23.37;9.60;;;;;;;2.96;95.06;100529.50;5115853;28;20656;-70
2021/12/07 06:56:42;;;;;;;26.90;9.87;;;;;;;2.93;95.06;100529.56;5115732;28;20192;-70
2021/12/07 06:59:09;;;;;;;26.77;10.03;;;;;;;2.91;95.25;100535.59;5097575;28;20208;-73
2021/12/07 07:01:36;;;;;;;19.73;10.20;;;;;;;2.91;95.26;100551.97;5115526;28;20216;-73
2021/12/07 07:04:03;;;;;;;25.03;11.13;;;;;;;2.87;95.18;100552.91;5115847;28;20678;-73
2021/12/07 07:06:30;;;;;;;18.43;10.47;;;;;;;2.85;95.17;100544.28;5115538;28;20181;-73
2021/12/07 07:08:56;;;;;;;24.10;10.60;;;;;;;2.92;95.11;100552.81;5115489;28;20209;-73
2021/12/07 07:11:23;;;;;;;21.10;10.33;;;;;;;2.80;95.52;100559.03;5115564;28;20547;-74
2021/12/07 07:13:49;;;;;;;25.33;11.27;;;;;;;2.87;95.19;100554.63;5115351;28;20193;-74
2021/12/07 07:16:16;;;;;;;28.63;11.60;;;;;;;2.84;95.22;100565.84;5115641;28;20186;-74
2021/12/07 07:18:43;;;;;;;39.97;13.10;;;;;;;2.87;95.33;100568.41;5115158;28;20288;-70
2021/12/07 07:21:09;;;;;;;30.00;12.70;;;;;;;2.93;95.22;100558.00;5115039;28;20200;-70
2021/12/07 07:23:38;;;;;;;35.40;12.80;;;;;;;2.89;95.14;100565.81;5115222;28;20181;-70
2021/12/07 07:26:05;;;;;;;19.00;10.77;;;;;;;2.94;94.40;100570.03;5115289;28;20189;-70
2021/12/07 07:28:33;;;;;;;32.90;12.43;;;;;;;2.93;94.53;100570.94;5115086;28;20197;-70
2021/12/07 07:31:03;;;;;;;18.83;11.47;;;;;;;2.97;94.27;100569.13;5115029;28;20530;-70
2021/12/07 07:33:29;;;;;;;26.60;10.83;;;;;;;2.93;94.29;100564.88;5115039;28;20182;-70
2021/12/07 07:35:57;;;;;;;20.27;12.23;;;;;;;2.90;94.31;100568.34;5115268;28;20197;-70
2021/12/07 07:38:24;;;;;;;18.13;12.00;;;;;;;2.80;94.81;100574.53;5114705;28;20212;-70
2021/12/07 07:40:51;;;;;;;21.23;12.50;;;;;;;2.79;94.74;100577.09;5114724;28;20287;-70
2021/12/07 07:43:22;;;;;;;25.77;10.77;;;;;;;2.84;94.29;100575.34;5096354;28;20222;-70
2021/12/07 07:46:01;;;;;;;24.97;10.57;;;;;;;2.91;94.49;100579.56;5096407;28;20280;-70
2021/12/07 07:48:28;;;;;;;12.07;9.97;;;;;;;2.84;94.30;100583.94;5114491;28;20214;-70
2021/12/07 07:50:55;;;;;;;36.33;9.77;;;;;;;2.83;94.46;100577.06;5114832;28;20219;-70
2021/12/07 07:53:22;;;;;;;23.83;9.30;;;;;;;2.82;94.28;100583.13;5114746;28;20186;-70
2021/12/07 07:55:51;;;;;;;21.10;8.50;;;;;;;2.87;94.27;100583.06;5080400;28;20209;-70
2021/12/07 07:58:18;;;;;;;15.90;8.30;;;;;;;2.81;94.15;100588.31;5114470;28;20212;-70
2021/12/07 08:00:46;;;;;;;14.77;7.90;;;;;;;2.82;94.04;100585.69;5114488;28;20272;-70
2021/12/07 08:03:13;;;;;;;23.77;8.80;;;;;;;2.76;94.27;100584.03;5114407;28;20205;-70
2021/12/07 08:05:40;;;;;;;14.17;9.63;;;;;;;2.76;94.29;100601.28;5096130;28;20193;-70
2021/12/07 08:08:08;;;;;;;16.40;8.87;;;;;;;2.76;94.23;100599.53;5096310;28;20682;-70
2021/12/07 08:10:35;;;;;;;13.47;10.07;;;;;;;2.80;94.30;100591.78;5114626;28;20200;-70
2021/12/07 08:13:05;;;;;;;30.87;12.87;;;;;;;2.79;94.17;100596.09;5114512;28;20182;-70
2021/12/07 08:15:36;;;;;;;34.60;10.57;;;;;;;2.86;93.97;100602.91;5114320;28;20213;-70
2021/12/07 08:18:03;;;;;;;16.83;10.63;;;;;;;2.87;93.88;100609.78;5114330;28;20201;-70
2021/12/07 08:20:30;;;;;;;15.57;9.70;;;;;;;2.89;93.84;100605.44;5095700;28;20224;-70
2021/12/07 08:22:58;;;;;;;26.23;11.03;;;;;;;2.84;94.14;100604.63;5114439;28;20189;-70
2021/12/07 08:25:25;;;;;;;20.20;12.07;;;;;;;2.96;94.10;100601.06;5114056;28;20659;-70
2021/12/07 08:27:51;;;;;;;35.57;14.00;;;;;;;2.96;93.92;100601.06;5114284;28;20551;-70
2021/12/07 08:30:18;;;;;;;14.73;11.37;;;;;;;2.96;94.18;100599.31;5114228;28;20670;-70
2021/12/07 08:32:45;;;;;;;33.20;13.33;;;;;;;2.97;94.02;100592.41;5113990;28;20200;-70
2021/12/07 08:35:16;;;;;;;26.70;13.27;;;;;;;3.06;93.53;100591.44;5113982;28;20178;-70
2021/12/07 08:37:44;;;;;;;21.40;12.20;;;;;;;3.08;93.70;100585.38;5114127;28;20205;-70
2021/12/07 08:40:11;;;;;;;27.93;12.03;;;;;;;3.08;93.31;100589.72;5113814;28;20604;-70
2021/12/07 08:42:38;;;;;;;21.47;12.07;;;;;;;3.06;93.64;100586.25;5114542;28;20260;-70
2021/12/07 08:45:06;;;;;;;20.87;12.23;;;;;;;3.08;93.42;100585.38;5113770;28;20189;-70
2021/12/07 08:47:34;;;;;;;22.80;12.27;;;;;;;3.16;93.68;100580.13;5114061;28;20212;-70
2021/12/07 08:50:12;;;;;;;20.77;13.07;;;;;;;3.23;92.98;100571.41;5114331;28;20181;-73
2021/12/07 08:52:39;;;;;;;32.17;15.53;;;;;;;3.13;92.55;100575.81;5113830;28;20636;-73
2021/12/07 09:00:32;;;;;;;19.67;12.60;;;;;;;3.26;92.66;100576.53;5113936;28;20192;-73
2021/12/07 09:02:59;;;;;;;20.93;13.73;;;;;;;3.30;92.10;100579.06;5114615;28;20250;-73
2021/12/07 09:05:26;;;;;;;26.43;13.90;;;;;;;3.46;92.29;100578.84;5118283;28;20189;-73
2021/12/07 09:07:53;;;;;;;23.63;14.60;;;;;;;3.48;92.16;100585.69;5118585;28;20204;-75
2021/12/07 09:10:19;;;;;;;25.33;13.50;;;;;;;3.59;92.29;100591.56;5118073;28;20589;-74
2021/12/07 09:12:47;;;;;;;31.47;14.20;;;;;;;3.64;92.52;100595.81;5118038;28;20697;-74
2021/12/07 09:15:14;;;;;;;26.10;12.90;;;;;;;3.74;92.68;100592.22;5117703;28;20187;-74
2021/12/07 09:17:40;;;;;;;35.50;14.50;;;;;;;3.81;92.31;100599.03;5117847;28;20221;-74
2021/12/07 09:20:15;;;;;;;21.63;13.03;;;;;;;3.84;92.05;100604.13;5117686;28;20196;-74
2021/12/07 09:22:47;;;;;;;28.73;12.07;;;;;;;3.85;91.75;100609.28;5117749;28;20196;-74
2021/12/07 09:25:14;;;;;;;20.20;11.40;;;;;;;3.86;91.76;100607.59;5117792;28;20615;-74
2021/12/07 09:27:41;;;;;;;19.00;10.83;;;;;;;4.02;91.39;100609.03;5117383;28;20211;-74
2021/12/07 09:30:11;;;;;;;19.13;11.07;;;;;;;3.90;90.48;100606.63;5117670;28;20187;-73
2021/12/07 09:32:39;;;;;;;22.60;12.20;;;;;;;3.83;90.76;100612.78;5117971;28;20187;-73
2021/12/07 09:35:07;;;;;;;26.80;12.97;;;;;;;3.93;91.24;100616.97;5117691;28;20191;-73
2021/12/07 09:37:35;;;;;;;16.00;10.63;;;;;;;3.85;90.88;100624.81;5117201;28;20207;-73
2021/12/07 09:40:04;;;;;;;23.23;11.07;;;;;;;3.92;91.47;100637.69;5117262;28;20191;-74
2021/12/07 09:42:31;;;;;;;16.10;10.10;;;;;;;4.07;91.24;100632.25;5117139;28;20686;-74
2021/12/07 09:44:57;;;;;;;23.03;10.77;;;;;;;4.11;91.14;100621.84;5117163;28;20580;-74
2021/12/07 09:47:24;;;;;;;26.50;10.57;;;;;;;4.20;90.26;100615.63;5116932;28;20205;-73
2021/12/07 09:49:51;;;;;;;24.50;10.23;;;;;;;4.12;90.06;100622.69;5117043;28;20193;-73
2021/12/07 09:52:18;;;;;;;18.57;10.27;;;;;;;4.22;89.92;100624.25;5116993;28;20184;-73
2021/12/07 09:54:44;;;;;;;19.13;10.23;;;;;;;4.26;89.48;100623.31;5117302;28;20188;-73
2021/12/07 09:57:11;;;;;;;20.47;10.43;;;;;;;4.18;89.01;100627.78;5099076;28;20208;-73
2021/12/07 09:59:38;;;;;;;16.67;10.17;;;;;;;4.29;89.29;100630.19;5116944;28;20192;-73
2021/12/07 10:02:07;;;;;;;14.57;10.00;;;;;;;4.31;89.15;100628.44;5117426;28;20534;-73
2021/12/07 10:04:34;;;;;;;16.93;10.10;;;;;;;4.20;88.67;100636.38;5117302;28;20623;-75
2021/12/07 10:07:01;;;;;;;18.23;10.00;;;;;;;4.17;88.80;100635.56;5098824;28;20564;-74
2021/12/07 10:09:27;;;;;;;21.17;10.30;;;;;;;4.30;88.61;100635.34;5117319;28;20203;-74
2021/12/07 10:11:54;;;;;;;15.07;9.43;;;;;;;4.32;88.49;100630.13;5116974;28;20238;-70
2021/12/07 10:14:21;;;;;;;12.40;9.73;;;;;;;4.28;88.76;100625.88;5116662;28;20184;-70
2021/12/07 10:16:49;;;;;;;13.70;9.73;;;;;;;4.28;88.36;100631.06;5116633;28;20195;-70
2021/12/07 10:19:31;;;;;;;10.33;9.37;;;;;;;4.26;88.08;100622.47;5116508;28;20240;-70
2021/12/07 10:22:07;;;;;;;20.40;10.97;;;;;;;4.16;88.54;100616.59;5116597;28;20200;-73
2021/12/07 10:24:49;;;;;;;21.10;9.50;;;;;;;4.26;88.59;100617.28;5116479;28;20177;-73
2021/12/07 10:27:43;;;;;;;28.63;10.43;;;;;;;4.37;87.91;100616.22;5117071;28;20546;-73
2021/12/07 10:30:18;;;;;;;13.40;9.77;;;;;;;4.32;87.71;100609.41;5116877;28;20187;-73
2021/12/07 10:33:05;;;;;;;20.20;10.47;;;;;;;4.29;87.71;100604.28;5116740;28;20168;-73
2021/12/07 10:35:35;;;;;;;18.50;11.20;;;;;;;4.29;87.72;100610.31;5116569;28;20173;-70
2021/12/07 10:38:15;;;;;;;18.63;9.93;;;;;;;4.26;88.48;100599.97;5116558;28;20209;-70
2021/12/07 10:40:55;;;;;;;21.00;10.37;;;;;;;4.44;88.44;100604.00;5116446;28;20183;-74
2021/12/07 10:43:43;;;;;;;12.50;10.13;;;;;;;4.62;87.59;100598.47;5116326;28;20207;-73
2021/12/07 10:46:34;;;;;;;14.87;9.87;;;;;;;4.68;87.28;100595.75;5116444;28;20615;-73
2021/12/07 10:49:44;;;;;;;11.27;8.43;;;;;;;4.88;86.63;100594.53;5116182;28;20208;-73
2021/12/07 10:52:15;;;;;;;15.37;9.07;;;;;;;4.84;86.46;100587.69;5086464;28;20204;-73
2021/12/07 10:54:46;;;;;;;26.63;10.20;;;;;;;4.88;86.51;100590.19;5115804;28;20177;-73
2021/12/07 10:57:41;;;;;;;13.53;8.97;;;;;;;4.76;86.45;100584.38;5115744;28;20204;-73
2021/12/07 11:00:26;;;;;;;14.37;8.03;;;;;;;4.79;86.53;100580.00;5115741;28;20196;-73
2021/12/07 11:03:02;;;;;;;14.53;7.80;;;;;;;4.83;86.25;100578.19;5115944;28;20204;-73
2021/12/07 11:05:40;;;;;;;8.17;7.23;;;;;;;4.76;85.89;100574.00;5115950;28;20169;-73
2021/12/07 11:08:08;;;;;;;14.67;7.43;;;;;;;4.77;86.57;100573.13;5115850;28;20214;-73
2021/12/07 11:10:39;;;;;;;8.73;7.40;;;;;;;4.88;86.15;100563.41;5115794;28;20185;-73
2021/12/07 11:13:15;;;;;;;12.67;6.13;;;;;;;5.03;85.79;100557.03;5115509;28;20177;-73
2021/12/07 11:15:53;;;;;;;8.83;6.03;;;;;;;5.01;84.85;100559.66;5116050;28;20230;-70
2021/12/07 11:18:23;;;;;;;15.93;6.67;;;;;;;5.00;85.27;100564.88;5115259;28;20296;-70
2021/12/07 11:20:51;;;;;;;9.80;6.20;;;;;;;4.96;85.08;100551.13;5115608;28;20208;-70
2021/12/07 11:23:27;;;;;;;8.90;5.87;;;;;;;5.15;84.76;100552.44;5115643;28;20212;-70
2021/12/07 11:31:27;;;;;;;11.47;6.67;;;;;;;5.36;83.14;100538.13;5115867;28;20189;-70
2021/12/07 11:34:03;;;;;;;9.53;7.03;;;;;;;5.46;82.87;100530.97;5096673;28;20288;-71
2021/12/07 11:36:33;;;;;;;5.37;5.07;;;;;;;5.53;82.43;100522.16;5115237;28;20184;-70
2021/12/07 11:39:00;;;;;;;5.47;5.00;;;;;;;5.59;82.99;100518.56;5114799;28;20209;-70
2021/12/07 11:41:32;;;;;;;17.00;6.00;;;;;;;5.76;81.88;100517.25;5112317;28;20193;-71
2021/12/07 11:44:08;;;;;;;7.63;5.37;;;;;;;5.74;81.82;100513.00;5109050;28;20284;-72
2021/12/07 11:46:45;;;;;;;10.50;5.73;;;;;;;5.77;82.58;100511.16;5112821;28;20238;-70
2021/12/07 11:49:16;;;;;;;7.77;5.20;;;;;;;5.87;82.46;100505.75;5113839;28;20188;-70
2021/12/07 11:51:46;;;;;;;13.93;4.97;;;;;;;5.79;80.67;100506.78;5112703;28;20204;-70
2021/12/07 11:54:15;;;;;;;14.10;5.83;;;;;;;5.81;81.16;100501.56;5109763;28;20551;-71
2021/12/07 11:56:43;;;;;;;5.33;4.90;;;;;;;5.97;81.28;100502.03;5102328;28;20177;-71
2021/12/07 11:59:11;;;;;;;16.30;5.00;;;;;;;5.99;80.46;100510.66;5114712;28;20190;-70
2021/12/07 12:01:44;;;;;;;10.00;5.13;;;;;;;5.99;80.76;100505.44;5113640;28;20191;-74
2021/12/07 12:04:11;;;;;;;9.53;5.07;;;;;;;5.82;79.44;100502.41;5113488;28;20208;-70
2021/12/07 12:06:38;;;;;;;14.60;4.50;;;;;;;5.93;80.49;100501.28;5113127;28;20189;-71
2021/12/07 12:09:05;;;;;;;13.73;5.63;;;;;;;5.93;80.50;100495.22;5112155;28;20196;-71
2021/12/07 12:11:36;;;;;;;13.33;5.13;;;;;;;5.96;81.16;100496.00;5109954;28;20631;-71
2021/12/07 12:14:43;;;;;;;6.77;4.73;;;;;;;5.80;80.25;100487.72;5111978;28;20185;-70
2021/12/07 12:17:45;;;;;;;9.30;4.70;;;;;;;5.92;80.45;100494.34;5114432;28;20575;-71
2021/12/07 12:20:19;;;;;;;5.37;4.23;;;;;;;5.85;79.39;100491.94;5112020;28;20192;-71
2021/12/07 12:23:08;;;;;;;6.87;4.50;;;;;;;5.87;79.58;100496.22;5110404;28;20189;-70
2021/12/07 12:25:35;;;;;;;10.13;5.13;;;;;;;5.71;80.18;100495.72;5113849;28;20177;-70
2021/12/07 12:28:03;;;;;;;16.27;5.33;;;;;;;5.71;79.97;100500.06;5113812;28;20568;-73
2021/12/07 12:30:39;;;;;;;5.97;4.87;;;;;;;5.69;80.36;100494.91;5113071;28;20201;-72
2021/12/07 12:33:12;;;;;;;9.10;4.63;;;;;;;5.75;80.21;100491.31;5113949;28;20181;-73
2021/12/07 12:35:43;;;;;;;18.50;5.30;;;;;;;5.71;81.27;100487.94;5094979;28;20208;-69
2021/12/07 12:38:25;;;;;;;5.67;3.17;;;;;;;5.84;80.47;100495.41;5113116;28;20208;-75
2021/12/07 12:40:59;;;;;;;5.80;3.67;;;;;;;5.96;79.57;100485.59;5112928;28;20211;-72
2021/12/07 12:43:35;;;;;;;4.63;4.20;;;;;;;5.85;79.11;100481.53;5112199;28;20204;-70
2021/12/07 12:46:03;;;;;;;16.03;4.33;;;;;;;5.82;79.31;100476.44;5096068;28;20195;-70
2021/12/07 12:48:32;;;;;;;4.90;4.27;;;;;;;5.75;79.40;100473.97;5096449;28;20297;-74
2021/12/07 12:50:59;;;;;;;4.70;3.80;;;;;;;5.69;79.65;100466.34;5111524;28;20234;-72
2021/12/07 12:53:31;;;;;;;14.23;4.57;;;;;;;5.78;80.07;100466.09;5094225;28;20536;-71
2021/12/07 12:55:59;;;;;;;12.40;4.70;;;;;;;5.84;80.37;100459.03;5112716;28;20201;-71
2021/12/07 12:58:29;;;;;;;6.30;3.70;;;;;;;5.93;79.02;100453.63;5113475;28;20212;-71
2021/12/07 13:01:20;;;;;;;4.63;3.60;;;;;;;5.99;78.66;100461.28;5111582;28;20272;-70
2021/12/07 13:03:50;;;;;;;16.53;3.93;;;;;;;6.00;77.05;100450.88;5113610;28;20343;-70
2021/12/07 13:06:25;;;;;;;8.37;4.37;;;;;;;6.03;77.83;100449.91;5113299;28;20196;-70
2021/12/07 13:09:17;;;;;;;13.27;5.17;;;;;;;6.02;78.11;100448.22;5111846;28;20635;-71